Time;durP1;ratioP1;P1;durP2;ratioP2;P2;SDS_P1;SDS_P2;PMS_P1;PMS_P2;Temp;Humidity;BMP_temperature;BMP_pressure;BME280_temperature;BME280_humidity;BME280_pressure;Samples;Min_cycle;Max_cycle;Signal;HPM_P1;HPM_P2
2023/01/04 00:01:33;;;;;;;9.77;3.73;;;9.00;99.90;;;;;;4997549;28;20450;-81
2023/01/04 00:04:01;;;;;;;5.53;1.40;;;8.90;99.90;;;;;;4998624;28;20450;-81
2023/01/04 00:06:28;;;;;;;8.70;1.33;;;9.00;99.90;;;;;;4984526;28;20471;-81
2023/01/04 00:08:54;;;;;;;4.10;1.27;;;9.00;99.90;;;;;;4979621;28;20455;-81
2023/01/04 00:11:23;;;;;;;3.50;1.30;;;9.00;99.90;;;;;;4992754;28;20450;-82
2023/01/04 00:13:51;;;;;;;4.03;1.70;;;8.90;99.90;;;;;;4999417;28;20530;-82
2023/01/04 00:16:20;;;;;;;5.23;1.97;;;9.00;99.90;;;;;;4985498;28;20977;-81
2023/01/04 00:18:47;;;;;;;4.17;1.30;;;9.10;99.90;;;;;;4979281;28;20466;-81
2023/01/04 00:21:17;;;;;;;4.50;1.53;;;9.10;99.90;;;;;;4991527;28;20454;-82
2023/01/04 00:23:46;;;;;;;4.70;1.63;;;9.20;99.90;;;;;;4992653;28;20454;-81
2023/01/04 00:26:15;;;;;;;3.87;1.50;;;9.10;99.90;;;;;;4983128;28;20473;-82
2023/01/04 00:28:42;;;;;;;5.03;1.63;;;9.20;99.90;;;;;;4989465;28;20461;-82
2023/01/04 00:31:12;;;;;;;7.23;1.83;;;9.20;99.90;;;;;;5002489;28;20960;-81
2023/01/04 00:33:38;;;;;;;6.87;1.47;;;9.30;99.90;;;;;;4997723;28;20537;-81
2023/01/04 00:36:08;;;;;;;4.20;1.37;;;9.30;99.90;;;;;;4982924;28;20478;-81
2023/01/04 00:38:37;;;;;;;3.80;1.33;;;9.40;99.90;;;;;;4987827;28;20454;-82
2023/01/04 00:41:05;;;;;;;3.53;1.20;;;9.40;99.90;;;;;;5003497;28;20458;-82
2023/01/04 00:43:32;;;;;;;4.17;1.67;;;9.40;99.90;;;;;;4998999;28;20462;-81
2023/01/04 00:46:00;;;;;;;4.23;1.80;;;9.40;99.90;;;;;;4981939;28;20471;-83
2023/01/04 00:48:27;;;;;;;7.97;1.73;;;9.40;99.90;;;;;;5001662;28;20614;-82
2023/01/04 00:50:53;;;;;;;4.03;1.77;;;9.40;99.90;;;;;;4990239;28;20828;-80
2023/01/04 00:53:20;;;;;;;6.77;2.23;;;9.30;99.90;;;;;;4981298;28;20455;-80
2023/01/04 00:55:48;;;;;;;4.80;2.03;;;9.20;99.90;;;;;;4989032;28;20482;-81
2023/01/04 00:58:15;;;;;;;6.13;1.60;;;9.00;99.90;;;;;;4999204;28;20450;-80
2023/01/04 01:00:42;;;;;;;7.10;1.20;;;9.10;99.90;;;;;;4982641;28;20451;-80
2023/01/04 01:03:08;;;;;;;9.43;2.07;;;9.00;99.90;;;;;;4978401;28;20466;-79
2023/01/04 01:05:36;;;;;;;11.90;2.80;;;9.00;99.90;;;;;;4993225;28;20477;-80
2023/01/04 01:08:23;;;;;;;9.73;3.47;;;8.90;99.90;;;;;;5000016;28;20986;-80
2023/01/04 01:10:52;;;;;;;4.50;1.70;;;8.80;99.90;;;;;;4981671;28;20483;-80
2023/01/04 01:13:19;;;;;;;8.20;2.57;;;8.80;99.90;;;;;;4978752;28;20836;-80
2023/01/04 01:15:45;;;;;;;4.63;1.43;;;8.70;99.90;;;;;;4979273;28;20480;-81
2023/01/04 01:18:12;;;;;;;7.30;3.00;;;8.80;99.90;;;;;;4979103;28;20463;-80
2023/01/04 01:20:43;;;;;;;8.50;2.83;;;8.80;99.90;;;;;;4996426;28;20459;-80
2023/01/04 01:23:12;;;;;;;9.90;2.23;;;8.80;99.90;;;;;;4999354;28;20458;-80
2023/01/04 01:25:38;;;;;;;9.00;4.17;;;8.90;99.90;;;;;;4980566;28;20989;-80
2023/01/04 01:28:07;;;;;;;7.67;6.17;;;8.90;99.90;;;;;;4978669;28;20451;-79
2023/01/04 01:30:34;;;;;;;5.43;3.33;;;8.80;99.90;;;;;;4994250;28;20992;-79
2023/01/04 01:33:01;;;;;;;6.17;4.43;;;8.90;99.90;;;;;;4998138;28;20458;-79
2023/01/04 01:35:28;;;;;;;5.97;4.87;;;8.90;99.90;;;;;;4982088;28;20479;-79
2023/01/04 01:37:54;;;;;;;3.87;3.27;;;8.90;99.90;;;;;;4977968;28;20463;-81
2023/01/04 01:40:21;;;;;;;13.47;4.70;;;8.90;99.90;;;;;;4991851;28;20477;-79
2023/01/04 01:42:48;;;;;;;7.00;4.10;;;9.00;99.90;;;;;;4997359;28;20844;-79
2023/01/04 01:45:32;;;;;;;7.60;6.87;;;9.10;99.90;;;;;;4983472;28;20554;-81
2023/01/04 01:48:04;;;;;;;7.13;6.60;;;9.10;99.90;;;;;;4978471;28;20465;-80
2023/01/04 01:50:36;;;;;;;12.47;10.23;;;9.10;99.90;;;;;;4992673;28;20454;-80
2023/01/04 01:53:05;;;;;;;9.73;8.67;;;9.10;99.90;;;;;;4997418;28;20462;-79
2023/01/04 01:55:34;;;;;;;10.43;9.57;;;9.10;99.90;;;;;;4982350;28;20486;-80
2023/01/04 01:58:02;;;;;;;10.93;10.10;;;9.10;99.90;;;;;;4994776;28;20461;-80
2023/01/04 02:00:31;;;;;;;15.83;14.60;;;9.20;99.90;;;;;;4983162;28;20455;-80
2023/01/04 02:03:07;;;;;;;15.83;14.70;;;9.20;99.90;;;;;;4978450;28;20462;-80
2023/01/04 02:05:35;;;;;;;18.07;16.83;;;9.20;99.90;;;;;;4992710;28;20469;-80
2023/01/04 02:08:03;;;;;;;13.67;12.67;;;9.20;99.90;;;;;;4997427;28;20831;-79
2023/01/04 02:10:31;;;;;;;14.83;14.07;;;9.20;99.90;;;;;;4982649;28;20451;-80
2023/01/04 02:12:59;;;;;;;21.30;20.07;;;9.20;99.90;;;;;;4977159;28;20850;-80
2023/01/04 02:15:31;;;;;;;11.90;10.90;;;9.00;99.90;;;;;;4988369;28;20488;-79
2023/01/04 02:18:07;;;;;;;24.37;22.93;;;9.00;99.90;;;;;;4957156;29;20459;-79
2023/01/04 02:20:44;;;;;;;14.27;13.53;;;9.00;99.90;;;;;;4986721;28;20450;-80
2023/01/04 02:23:49;;;;;;;29.50;27.97;;;9.00;99.90;;;;;;4996665;28;20464;-80
2023/01/04 02:26:42;;;;;;;35.23;33.37;;;8.90;99.90;;;;;;4976995;28;20473;-79
2023/01/04 02:29:38;;;;;;;62.83;60.43;;;8.90;99.90;;;;;;4977589;28;20458;-80
2023/01/04 02:32:12;;;;;;;99.73;96.23;;;8.90;99.90;;;;;;4976574;28;20806;-79
2023/01/04 02:34:48;;;;;;;128.90;124.57;;;8.90;99.90;;;;;;4984472;28;20465;-80
2023/01/04 02:37:25;;;;;;;179.30;173.70;;;9.00;99.90;;;;;;4996674;28;20485;-80
2023/01/04 02:40:00;;;;;;;146.43;141.63;;;9.10;99.90;;;;;;4986168;28;20451;-80
2023/01/04 02:45:28;;;;;;;119.30;115.33;;;9.40;99.90;;;;;;4989321;28;20469;-80
2023/01/04 02:50:52;;;;;;;146.53;141.70;;;9.50;99.90;;;;;;4982595;28;20533;-79
2023/01/04 02:53:23;;;;;;;118.63;114.77;;;9.50;99.90;;;;;;4976288;28;20451;-79
2023/01/04 02:56:04;;;;;;;97.87;94.67;;;9.50;99.90;;;;;;4976692;28;20611;-80
2023/01/04 02:58:56;;;;;;;102.10;98.73;;;9.70;99.90;;;;;;4976553;28;20455;-80
2023/01/04 03:07:25;;;;;;;107.87;104.27;;;9.70;99.90;;;;;;4970582;28;20565;-81
2023/01/04 03:09:57;;;;;;;87.37;84.37;;;9.70;99.90;;;;;;4987252;28;20455;-80
2023/01/04 03:12:34;;;;;;;77.67;74.87;;;9.80;99.90;;;;;;4978072;28;20763;-80
2023/01/04 03:15:08;;;;;;;73.03;70.50;;;9.90;99.90;;;;;;4978117;28;20577;-80
2023/01/04 03:17:41;;;;;;;66.50;63.93;;;9.90;99.90;;;;;;4978152;28;20455;-80
2023/01/04 03:20:13;;;;;;;50.60;48.80;;;9.90;99.90;;;;;;4978530;28;20455;-80
2023/01/04 03:36:52;;;;;;;22.13;21.23;;;10.20;99.90;;;;;;4979578;28;20497;-83
2023/01/04 03:50:55;;;;;;;15.90;15.10;;;10.30;99.90;;;;;;4991604;28;20451;-83
2023/01/04 03:53:24;;;;;;;16.63;15.83;;;10.30;99.90;;;;;;4991077;28;20458;-84
2023/01/04 03:55:52;;;;;;;16.07;15.37;;;10.30;99.90;;;;;;4987123;28;20470;-81
2023/01/04 03:58:20;;;;;;;16.37;15.57;;;10.30;99.90;;;;;;4988887;28;20458;-80
2023/01/04 04:00:47;;;;;;;23.80;22.80;;;10.30;99.90;;;;;;4997001;28;20453;-82
2023/01/04 04:03:14;;;;;;;26.10;25.00;;;10.30;99.90;;;;;;4989091;28;20461;-82
2023/01/04 04:08:29;;;;;;;58.77;56.60;;;10.20;99.90;;;;;;4981974;28;20503;-81
2023/01/04 04:11:28;;;;;;;89.93;86.87;;;10.10;99.90;;;;;;4983203;28;20919;-81
2023/01/04 04:13:45;;;;;;;95.50;92.30;;;10.00;99.90;;;;;;4982410;28;20859;-81
2023/01/04 04:16:12;;;;;;;107.43;103.83;;;10.00;99.90;;;;;;4982056;28;20479;-81
2023/01/04 04:18:39;;;;;;;83.17;80.27;;;10.00;99.90;;;;;;4982609;28;20454;-81
2023/01/04 04:21:06;;;;;;;95.87;92.27;;;10.00;99.90;;;;;;4982942;28;20454;-81
2023/01/04 04:23:34;;;;;;;76.70;74.07;;;10.00;99.90;;;;;;4989017;28;20450;-80
2023/01/04 04:26:01;;;;;;;95.00;91.83;;;10.20;99.90;;;;;;4982113;28;20850;-81
2023/01/04 04:28:27;;;;;;;104.80;101.30;;;10.10;99.90;;;;;;4983421;28;20455;-81
2023/01/04 04:30:54;;;;;;;67.97;65.57;;;10.10;99.90;;;;;;4984476;28;20848;-82
2023/01/04 04:33:21;;;;;;;74.17;71.57;;;10.20;99.90;;;;;;4983723;28;20451;-82
2023/01/04 04:35:50;;;;;;;67.37;65.00;;;10.20;99.90;;;;;;4983049;28;20510;-81
2023/01/04 04:38:17;;;;;;;68.13;65.73;;;10.20;99.90;;;;;;4982284;28;20459;-82
2023/01/04 04:43:29;;;;;;;77.07;74.07;;;10.30;99.90;;;;;;4981931;28;20502;-80
2023/01/04 04:45:56;;;;;;;74.03;71.43;;;10.20;99.90;;;;;;4981853;28;20485;-81
2023/01/04 04:48:23;;;;;;;57.53;55.47;;;10.30;99.90;;;;;;4982314;28;20454;-81
2023/01/04 04:50:50;;;;;;;61.73;59.40;;;10.30;99.90;;;;;;4981988;28;20455;-81
2023/01/04 04:53:17;;;;;;;56.33;54.30;;;10.30;99.90;;;;;;4982396;28;20968;-81
2023/01/04 04:55:45;;;;;;;55.30;53.30;;;10.30;99.90;;;;;;4981509;28;20475;-81
2023/01/04 04:58:11;;;;;;;46.03;44.13;;;10.40;99.90;;;;;;4992355;28;20451;-81
2023/01/04 05:00:40;;;;;;;42.63;41.03;;;10.50;99.90;;;;;;4981851;28;20458;-81
2023/01/04 05:03:07;;;;;;;43.17;41.57;;;10.50;99.90;;;;;;4981351;28;20458;-80
2023/01/04 05:05:34;;;;;;;41.00;39.10;;;10.40;99.90;;;;;;4993422;28;20500;-82
2023/01/04 05:08:00;;;;;;;34.50;33.10;;;10.50;99.90;;;;;;4990563;28;20458;-83
2023/01/04 05:10:27;;;;;;;32.40;31.10;;;10.50;99.90;;;;;;4984415;28;20827;-82
2023/01/04 05:13:00;;;;;;;28.53;27.33;;;10.50;99.90;;;;;;4981103;28;20459;-83
2023/01/04 05:22:05;;;;;;;28.43;27.33;;;10.60;99.90;;;;;;4930744;29;20457;-82
2023/01/04 05:24:31;;;;;;;32.37;30.97;;;10.60;99.90;;;;;;4969972;28;20467;-81
2023/01/04 05:26:58;;;;;;;36.33;34.83;;;10.50;99.90;;;;;;4984665;28;20453;-80
2023/01/04 05:32:11;;;;;;;35.10;33.60;;;10.60;99.90;;;;;;4994853;28;20442;-81
2023/01/04 05:34:37;;;;;;;39.53;37.93;;;10.60;99.90;;;;;;4981294;28;20470;-80
2023/01/04 05:37:04;;;;;;;38.77;37.27;;;10.60;99.90;;;;;;4999777;28;20474;-81
2023/01/04 05:39:33;;;;;;;35.77;34.37;;;10.60;99.90;;;;;;4992368;28;21151;-81
2023/01/04 05:42:28;;;;;;;35.60;34.20;;;10.60;99.90;;;;;;4986407;28;20450;-81
2023/01/04 05:45:28;;;;;;;32.47;31.17;;;10.60;99.90;;;;;;4988473;28;20463;-81
2023/01/04 05:48:28;;;;;;;29.50;28.30;;;10.60;99.90;;;;;;4997299;28;20450;-81
2023/01/04 05:50:55;;;;;;;31.80;30.50;;;10.70;99.90;;;;;;4989271;28;20443;-81
2023/01/04 05:53:44;;;;;;;28.33;27.23;;;10.60;99.90;;;;;;4981343;28;20451;-82
2023/01/04 05:56:35;;;;;;;32.60;31.30;;;10.80;99.90;;;;;;4993811;28;20478;-80
2023/01/04 05:59:02;;;;;;;26.20;25.10;;;10.80;99.90;;;;;;5000330;28;20446;-83
2023/01/04 06:04:55;;;;;;;21.70;20.53;;;10.80;99.90;;;;;;4947355;28;20927;-81
2023/01/04 06:07:48;;;;;;;20.10;19.20;;;10.90;99.90;;;;;;4980909;28;20451;-81
2023/01/04 06:10:15;;;;;;;18.00;17.20;;;10.90;99.90;;;;;;4993030;28;20451;-81
2023/01/04 06:12:42;;;;;;;16.43;15.63;;;10.90;99.90;;;;;;4981730;28;20477;-81
2023/01/04 06:15:10;;;;;;;18.83;17.93;;;10.80;99.90;;;;;;4985137;28;21033;-81
2023/01/04 06:17:41;;;;;;;12.93;12.23;;;10.80;99.90;;;;;;4983229;28;20865;-81
2023/01/04 06:20:11;;;;;;;14.10;13.40;;;10.90;99.90;;;;;;4980937;28;20462;-81
2023/01/04 06:22:39;;;;;;;16.13;15.33;;;10.90;99.90;;;;;;4996873;28;20843;-81
2023/01/04 06:25:18;;;;;;;13.80;13.00;;;11.00;99.90;;;;;;4998512;28;20565;-81
2023/01/04 06:27:45;;;;;;;14.77;14.03;;;11.00;99.90;;;;;;5000014;28;20450;-81
2023/01/04 06:30:12;;;;;;;13.10;12.30;;;11.00;99.90;;;;;;4995733;28;20462;-81
2023/01/04 06:32:38;;;;;;;11.43;10.83;;;11.00;99.90;;;;;;4981053;28;20454;-81
2023/01/04 06:35:06;;;;;;;11.50;10.90;;;11.00;99.90;;;;;;4994169;28;20471;-80
2023/01/04 06:37:34;;;;;;;12.50;11.70;;;11.10;99.90;;;;;;4988017;28;20509;-81
2023/01/04 06:40:02;;;;;;;11.90;11.20;;;11.10;99.90;;;;;;4996160;28;20466;-81
2023/01/04 06:42:45;;;;;;;9.67;9.07;;;11.10;99.90;;;;;;4990149;28;20464;-81
2023/01/04 06:45:12;;;;;;;6.33;5.83;;;11.20;99.90;;;;;;5031845;22;20486;-80
2023/01/04 06:47:40;;;;;;;5.10;4.70;;;11.20;99.90;;;;;;4979870;28;20830;-80
2023/01/04 06:50:08;;;;;;;5.40;5.00;;;11.30;99.90;;;;;;4982770;28;20819;-81
2023/01/04 06:52:36;;;;;;;6.10;5.50;;;11.30;99.90;;;;;;4979607;28;20849;-81
2023/01/04 06:55:03;;;;;;;4.57;4.17;;;11.30;99.90;;;;;;4979400;28;20481;-81
2023/01/04 06:57:31;;;;;;;4.60;4.20;;;11.30;99.90;;;;;;4978826;28;20478;-81
2023/01/04 06:59:57;;;;;;;5.57;5.17;;;11.40;99.90;;;;;;4979219;28;20487;-81
2023/01/04 07:02:25;;;;;;;4.80;4.40;;;11.30;99.90;;;;;;4978574;28;20454;-81
2023/01/04 07:04:52;;;;;;;6.37;4.53;;;11.30;99.90;;;;;;4982109;28;20525;-81
2023/01/04 07:07:18;;;;;;;4.73;4.33;;;11.30;99.90;;;;;;4989230;28;20447;-81
2023/01/04 07:09:46;;;;;;;4.60;3.83;;;11.30;99.90;;;;;;4981304;28;20451;-82
2023/01/04 07:12:13;;;;;;;4.80;3.03;;;11.30;99.90;;;;;;4987280;28;20462;-82
2023/01/04 07:14:40;;;;;;;4.13;3.20;;;11.40;99.90;;;;;;4984134;28;20476;-81
2023/01/04 07:17:07;;;;;;;3.77;2.67;;;11.40;99.90;;;;;;4989962;28;20478;-81
2023/01/04 07:19:33;;;;;;;4.80;3.30;;;11.50;99.90;;;;;;4981351;28;20450;-81
2023/01/04 07:22:00;;;;;;;4.23;2.77;;;11.50;99.90;;;;;;4979712;28;20459;-80
2023/01/04 07:24:28;;;;;;;4.03;2.83;;;11.50;99.90;;;;;;4980082;28;20478;-80
2023/01/04 07:26:56;;;;;;;5.07;2.83;;;11.50;99.90;;;;;;4995541;28;20451;-80
2023/01/04 07:29:23;;;;;;;3.83;2.57;;;11.50;99.90;;;;;;4996599;28;20473;-83
2023/01/04 07:31:51;;;;;;;3.50;1.90;;;11.50;99.90;;;;;;4998435;28;20454;-82
2023/01/04 07:34:19;;;;;;;3.80;2.10;;;11.60;99.90;;;;;;4999332;28;20470;-82
2023/01/04 07:36:47;;;;;;;3.20;1.70;;;11.60;99.90;;;;;;4993901;28;20477;-82
2023/01/04 07:39:14;;;;;;;5.00;2.43;;;11.60;99.90;;;;;;4990061;28;20457;-81
2023/01/04 07:44:43;;;;;;;8.20;2.03;;;11.70;99.90;;;;;;4983139;28;20474;-82
2023/01/04 07:47:10;;;;;;;3.43;1.80;;;11.70;99.90;;;;;;4982201;28;20976;-82
2023/01/04 07:49:54;;;;;;;5.77;1.70;;;11.70;99.90;;;;;;4983393;28;20469;-79
2023/01/04 07:52:21;;;;;;;3.73;1.70;;;11.70;99.90;;;;;;4982133;28;20455;-81
2023/01/04 07:54:48;;;;;;;3.30;1.63;;;11.70;99.90;;;;;;4998020;28;20560;-82
2023/01/04 07:57:14;;;;;;;5.00;1.97;;;11.70;99.90;;;;;;5002369;28;20485;-83
2023/01/04 07:59:42;;;;;;;3.40;1.80;;;11.70;99.90;;;;;;4990332;28;20815;-81
2023/01/04 08:02:10;;;;;;;5.83;2.17;;;11.70;99.90;;;;;;4989675;28;20458;-81
2023/01/04 08:04:58;;;;;;;3.40;1.90;;;11.70;99.90;;;;;;4989079;28;20795;-85
2023/01/04 08:07:24;;;;;;;3.87;1.90;;;11.70;99.90;;;;;;4998183;28;20518;-82
2023/01/04 08:09:51;;;;;;;6.07;2.23;;;11.70;99.90;;;;;;4988773;28;20451;-83
2023/01/04 08:12:18;;;;;;;3.40;2.40;;;11.70;99.90;;;;;;4983024;28;20991;-80
2023/01/04 08:14:46;;;;;;;4.90;2.00;;;11.70;99.90;;;;;;4989055;28;20477;-80
2023/01/04 08:17:13;;;;;;;3.50;2.20;;;11.70;99.90;;;;;;4981928;28;20856;-81
2023/01/04 08:19:39;;;;;;;3.30;2.10;;;11.70;99.90;;;;;;4999387;28;20456;-83
2023/01/04 08:22:06;;;;;;;3.20;1.90;;;11.80;99.90;;;;;;4982505;28;20463;-82
2023/01/04 08:24:33;;;;;;;3.40;2.03;;;11.80;99.90;;;;;;4980378;28;20635;-81
2023/01/04 08:26:59;;;;;;;3.50;2.20;;;11.80;99.90;;;;;;4995529;28;20454;-80
2023/01/04 08:29:26;;;;;;;3.70;2.40;;;11.70;99.90;;;;;;4990655;28;20455;-81
2023/01/04 08:31:54;;;;;;;3.50;2.20;;;11.80;99.90;;;;;;4981415;28;20459;-81
2023/01/04 08:34:21;;;;;;;3.80;2.40;;;11.80;99.90;;;;;;4982622;28;20450;-81
2023/01/04 08:36:52;;;;;;;3.50;2.33;;;11.80;99.90;;;;;;4983703;28;20462;-79
2023/01/04 08:39:20;;;;;;;10.40;2.50;;;11.90;99.90;;;;;;4980655;28;20985;-80
2023/01/04 08:41:53;;;;;;;3.60;2.20;;;11.90;99.90;;;;;;4991945;28;20453;-81
2023/01/04 08:44:21;;;;;;;3.60;2.50;;;11.90;99.90;;;;;;4999797;28;20556;-81
2023/01/04 08:46:48;;;;;;;3.40;2.40;;;12.00;99.90;;;;;;5000740;28;20851;-81
2023/01/04 08:49:17;;;;;;;4.13;2.50;;;12.10;99.90;;;;;;5001940;28;20457;-81
2023/01/04 08:51:44;;;;;;;4.43;2.10;;;12.10;99.90;;;;;;5000898;28;20481;-81
2023/01/04 08:54:12;;;;;;;4.80;1.80;;;12.00;99.90;;;;;;5000043;28;20499;-83
2023/01/04 08:56:39;;;;;;;4.90;1.90;;;12.10;99.90;;;;;;5000273;28;20458;-81
2023/01/04 08:59:07;;;;;;;4.13;1.70;;;12.10;99.90;;;;;;5000767;28;20458;-81
2023/01/04 09:01:34;;;;;;;4.10;1.40;;;12.20;99.90;;;;;;5001565;28;20804;-81
2023/01/04 09:04:01;;;;;;;3.10;1.10;;;12.20;99.90;;;;;;5000541;28;20457;-80
2023/01/04 09:06:29;;;;;;;3.57;1.27;;;12.20;99.90;;;;;;5000451;28;20477;-81
2023/01/04 09:08:57;;;;;;;3.00;1.10;;;12.30;99.90;;;;;;5000406;28;20458;-81
2023/01/04 09:11:24;;;;;;;3.70;1.70;;;12.30;99.90;;;;;;5001469;28;20450;-82
2023/01/04 09:13:55;;;;;;;3.10;1.10;;;12.30;99.90;;;;;;5000395;28;20458;-81
2023/01/04 09:16:22;;;;;;;2.90;0.90;;;12.30;99.90;;;;;;5000378;28;20525;-82
2023/01/04 09:18:49;;;;;;;3.40;1.10;;;12.30;99.90;;;;;;5000627;28;20484;-81
2023/01/04 09:21:18;;;;;;;4.13;1.20;;;12.30;99.90;;;;;;5000379;28;20465;-82
2023/01/04 09:23:46;;;;;;;3.07;1.17;;;12.40;99.90;;;;;;5000222;28;20458;-81
2023/01/04 09:26:15;;;;;;;4.40;1.00;;;12.40;99.90;;;;;;5000566;28;20483;-81
2023/01/04 09:28:42;;;;;;;3.60;1.30;;;12.40;99.90;;;;;;5000463;28;20815;-81
2023/01/04 09:31:11;;;;;;;6.10;1.47;;;12.50;99.90;;;;;;5000651;28;20454;-81
2023/01/04 09:33:38;;;;;;;3.97;1.20;;;12.50;99.90;;;;;;5000659;28;20457;-81
2023/01/04 09:36:07;;;;;;;3.43;0.90;;;12.50;99.90;;;;;;4999384;28;20478;-81
2023/01/04 09:38:35;;;;;;;5.10;1.40;;;12.60;99.90;;;;;;5000262;28;20478;-83
2023/01/04 09:41:10;;;;;;;3.50;1.00;;;12.50;99.90;;;;;;5000563;28;20454;-82
2023/01/04 09:43:43;;;;;;;3.20;1.00;;;12.50;99.90;;;;;;5000143;28;20458;-82
2023/01/04 09:46:16;;;;;;;4.50;0.90;;;12.60;99.90;;;;;;5000029;28;20489;-81
2023/01/04 09:48:45;;;;;;;6.07;1.00;;;12.60;99.90;;;;;;5000412;28;20453;-83
2023/01/04 09:51:16;;;;;;;5.47;1.10;;;12.60;99.90;;;;;;4999621;28;20450;-81
2023/01/04 09:54:15;;;;;;;6.03;1.97;;;12.60;99.90;;;;;;5000231;28;20469;-81
2023/01/04 09:56:48;;;;;;;4.67;1.10;;;12.60;99.90;;;;;;4998866;28;20446;-81
2023/01/04 09:59:20;;;;;;;6.60;1.50;;;12.60;99.90;;;;;;4999860;28;20474;-81
2023/01/04 10:01:52;;;;;;;3.30;1.20;;;12.60;99.90;;;;;;4999956;28;20461;-82
2023/01/04 10:04:25;;;;;;;4.00;1.90;;;12.50;99.90;;;;;;4999859;28;20456;-81
2023/01/04 10:06:53;;;;;;;4.30;1.80;;;12.40;99.90;;;;;;4999573;28;20462;-82
2023/01/04 10:09:20;;;;;;;5.80;1.67;;;12.30;99.90;;;;;;4999544;28;20476;-84
2023/01/04 10:12:08;;;;;;;6.20;2.10;;;12.30;99.90;;;;;;4999789;28;20509;-82
2023/01/04 10:14:49;;;;;;;3.30;1.80;;;12.30;99.90;;;;;;4998668;28;20474;-81
2023/01/04 10:17:26;;;;;;;4.80;1.70;;;12.20;99.90;;;;;;4999154;28;20450;-81
2023/01/04 10:20:07;;;;;;;3.40;2.00;;;12.20;99.90;;;;;;4999509;28;20461;-82
2023/01/04 10:22:44;;;;;;;4.40;4.00;;;12.10;99.90;;;;;;4999388;28;20462;-80
2023/01/04 10:25:23;;;;;;;6.90;6.40;;;12.10;99.90;;;;;;4998371;28;20478;-81
2023/01/04 10:28:02;;;;;;;8.73;8.10;;;12.00;99.90;;;;;;4998987;28;20812;-81
2023/01/04 10:30:36;;;;;;;10.87;10.27;;;11.90;99.90;;;;;;4997891;28;20450;-80
2023/01/04 10:33:11;;;;;;;17.50;16.70;;;11.90;99.90;;;;;;4996820;28;20761;-80
2023/01/04 10:35:39;;;;;;;27.37;26.20;;;12.00;99.90;;;;;;4997108;28;20485;-81
2023/01/04 10:38:15;;;;;;;30.37;29.07;;;12.00;99.90;;;;;;4997294;28;20564;-81
2023/01/04 10:40:43;;;;;;;24.27;23.17;;;11.90;99.90;;;;;;4989186;28;20456;-80
2023/01/04 10:43:16;;;;;;;23.13;22.03;;;12.00;99.90;;;;;;4997088;28;20454;-80
2023/01/04 10:45:49;;;;;;;28.43;27.23;;;12.10;99.90;;;;;;4996928;28;20486;-80
2023/01/04 10:48:26;;;;;;;31.77;30.47;;;12.20;99.90;;;;;;4997101;28;20457;-80
2023/01/04 10:50:56;;;;;;;17.70;16.70;;;12.20;99.90;;;;;;4996667;28;20528;-80
2023/01/04 10:53:27;;;;;;;21.40;20.30;;;12.30;99.90;;;;;;4996551;28;20526;-81
2023/01/04 10:56:01;;;;;;;22.63;21.50;;;12.30;99.90;;;;;;4996994;28;20474;-81
2023/01/04 10:58:37;;;;;;;25.13;24.03;;;12.30;99.90;;;;;;4996416;28;20485;-80
2023/01/04 11:01:09;;;;;;;17.70;16.70;;;12.20;99.90;;;;;;4996697;28;20453;-80
2023/01/04 11:03:42;;;;;;;21.73;20.73;;;12.30;99.90;;;;;;4996377;28;20458;-80
2023/01/04 11:06:15;;;;;;;21.50;20.40;;;12.30;99.90;;;;;;4996099;28;20473;-80
2023/01/04 11:08:47;;;;;;;27.83;26.53;;;12.30;99.90;;;;;;4996476;28;20458;-80
2023/01/04 11:11:18;;;;;;;35.90;34.17;;;12.20;99.90;;;;;;4996785;28;20625;-79
2023/01/04 11:13:46;;;;;;;32.30;31.00;;;12.20;99.90;;;;;;4996129;28;20843;-81
2023/01/04 11:16:13;;;;;;;37.70;35.97;;;12.20;99.90;;;;;;4995382;28;20478;-81
2023/01/04 11:18:42;;;;;;;49.17;47.37;;;12.20;99.90;;;;;;4995679;28;20485;-80
2023/01/04 11:21:13;;;;;;;47.57;45.67;;;12.30;99.90;;;;;;4995660;28;20465;-80
2023/01/04 11:23:40;;;;;;;46.87;44.87;;;12.30;99.90;;;;;;4995962;28;20461;-80
2023/01/04 11:26:12;;;;;;;71.47;68.77;;;12.30;99.90;;;;;;4994985;28;20478;-82
2023/01/04 11:28:44;;;;;;;53.93;51.83;;;12.40;99.90;;;;;;4996061;28;20457;-80
2023/01/04 11:31:32;;;;;;;47.95;46.05;;;12.40;99.90;;;;;;4995370;28;20468;-81
2023/01/04 11:34:00;;;;;;;27.70;26.20;;;12.40;99.90;;;;;;4990228;28;20199;-78
2023/01/04 11:36:36;;;;;;;23.00;22.00;;;12.40;99.90;;;;;;4965140;28;20478;-81
2023/01/04 11:39:05;;;;;;;20.30;19.40;;;12.50;99.90;;;;;;4976732;28;20565;-80
2023/01/04 11:41:32;;;;;;;19.03;18.07;;;12.40;99.90;;;;;;4980409;28;20554;-81
2023/01/04 11:44:01;;;;;;;16.37;15.27;;;12.50;99.90;;;;;;4997679;28;20886;-79
2023/01/04 11:46:29;;;;;;;14.63;13.90;;;12.50;99.90;;;;;;4989614;28;20490;-80
2023/01/04 11:48:57;;;;;;;9.80;9.20;;;12.50;99.90;;;;;;4997562;28;20533;-81
2023/01/04 11:51:41;;;;;;;11.80;11.10;;;12.60;99.90;;;;;;4998036;28;21161;-80
2023/01/04 11:54:19;;;;;;;15.30;14.50;;;12.60;99.90;;;;;;4998436;28;20464;-81
2023/01/04 11:57:01;;;;;;;16.17;15.20;;;12.60;99.90;;;;;;4997572;28;20453;-80
2023/01/04 11:59:28;;;;;;;17.17;16.17;;;12.60;99.90;;;;;;4998344;28;20485;-81
2023/01/04 12:02:17;;;;;;;14.73;13.93;;;12.60;99.90;;;;;;4994487;28;20827;-80
2023/01/04 12:04:45;;;;;;;13.20;12.50;;;12.60;99.90;;;;;;4979645;28;20474;-81
2023/01/04 12:07:27;;;;;;;11.03;10.43;;;12.50;99.90;;;;;;4985015;28;20965;-81
2023/01/04 12:09:53;;;;;;;16.23;15.33;;;12.60;99.90;;;;;;4998993;28;20431;-81
2023/01/04 12:12:21;;;;;;;18.87;17.87;;;12.60;99.90;;;;;;4997966;28;20450;-81
2023/01/04 12:14:49;;;;;;;16.27;15.37;;;12.70;99.90;;;;;;4997948;28;20469;-81
2023/01/04 12:17:22;;;;;;;17.80;16.97;;;12.70;99.90;;;;;;4992792;28;20900;-82
2023/01/04 12:19:53;;;;;;;14.30;13.60;;;12.70;99.90;;;;;;4980695;28;20478;-81
2023/01/04 12:22:24;;;;;;;16.43;15.17;;;12.80;99.90;;;;;;4988944;28;20458;-82
2023/01/04 12:24:53;;;;;;;18.70;17.80;;;12.80;99.90;;;;;;5003194;28;20482;-86
2023/01/04 12:27:20;;;;;;;26.10;24.90;;;12.80;99.90;;;;;;5004043;28;20534;-81
2023/01/04 12:29:56;;;;;;;32.60;31.23;;;12.70;99.90;;;;;;5003619;28;20496;-83
2023/01/04 12:32:41;;;;;;;87.57;84.53;;;12.40;99.90;;;;;;5002774;28;20472;-82
2023/01/04 12:36:01;;;;;;;81.17;78.40;;;12.40;99.90;;;;;;5002867;28;20479;-83
2023/01/04 12:39:13;;;;;;;123.63;119.60;;;12.30;99.90;;;;;;5002119;28;20462;-85
2023/01/04 12:42:10;;;;;;;204.07;197.57;;;12.20;99.90;;;;;;5003652;28;20477;-83
2023/01/04 12:45:13;;;;;;;257.03;248.67;;;12.20;99.90;;;;;;5004323;28;20501;-83
2023/01/04 12:50:33;;;;;;;204.10;197.43;;;12.30;99.90;;;;;;4983801;28;20491;-82
2023/01/04 12:53:03;;;;;;;252.00;243.50;;;12.30;99.90;;;;;;4997875;28;20454;-83
2023/01/04 12:55:57;;;;;;;190.97;184.53;;;12.30;99.90;;;;;;5002056;28;20484;-82
2023/01/04 12:58:42;;;;;;;211.80;204.47;;;12.30;99.90;;;;;;4985300;28;20503;-82
2023/01/04 13:01:24;;;;;;;178.17;172.20;;;12.30;99.90;;;;;;4982331;28;20469;-82
2023/01/04 13:03:57;;;;;;;212.80;205.43;;;12.30;99.90;;;;;;4964040;29;20440;-83
2023/01/04 13:06:26;;;;;;;180.77;174.70;;;12.40;99.90;;;;;;4963418;28;20475;-82
2023/01/04 13:08:53;;;;;;;187.40;181.07;;;12.40;99.90;;;;;;5001782;28;20837;-82
2023/01/04 13:12:06;;;;;;;234.70;226.40;;;12.50;99.90;;;;;;5002595;28;20797;-82
2023/01/04 13:14:40;;;;;;;206.20;199.20;;;12.50;99.90;;;;;;4983198;28;20803;-82
2023/01/04 13:17:16;;;;;;;221.27;213.63;;;12.40;99.90;;;;;;4997420;28;20486;-81
2023/01/04 13:19:44;;;;;;;193.90;187.37;;;12.30;99.90;;;;;;4981232;28;20462;-84
2023/01/04 13:22:18;;;;;;;217.00;209.40;;;12.30;99.90;;;;;;4986497;28;20545;-83
2023/01/04 13:24:48;;;;;;;237.00;228.20;;;12.30;99.90;;;;;;5001756;28;20477;-82
2023/01/04 13:27:19;;;;;;;223.57;215.37;;;12.40;99.90;;;;;;4997491;28;20505;-82
2023/01/04 13:29:51;;;;;;;231.77;222.67;;;12.40;99.90;;;;;;4991528;28;20470;-83
2023/01/04 13:32:25;;;;;;;203.20;196.23;;;12.50;99.90;;;;;;4996856;28;20499;-82
2023/01/04 13:34:54;;;;;;;180.37;173.70;;;12.50;99.90;;;;;;4982205;28;20479;-83
2023/01/04 13:37:28;;;;;;;183.50;177.20;;;12.50;99.90;;;;;;4992075;28;20517;-83
2023/01/04 13:40:24;;;;;;;167.13;161.40;;;12.50;99.90;;;;;;5001007;28;20535;-82
2023/01/04 13:42:58;;;;;;;145.70;140.80;;;12.60;99.90;;;;;;4991833;28;20461;-84
2023/01/04 13:45:52;;;;;;;140.90;136.27;;;12.60;99.90;;;;;;4999610;28;20480;-83
2023/01/04 13:48:22;;;;;;;127.20;123.00;;;12.60;99.90;;;;;;4996487;28;20462;-82
2023/01/04 13:51:00;;;;;;;143.73;138.93;;;12.70;99.90;;;;;;5000766;28;20455;-83
2023/01/04 13:53:29;;;;;;;105.07;101.57;;;12.70;99.90;;;;;;5001416;28;20453;-83
2023/01/04 13:55:58;;;;;;;69.07;66.57;;;12.70;99.90;;;;;;5000613;28;20533;-81
2023/01/04 13:58:27;;;;;;;71.20;68.50;;;12.70;99.90;;;;;;4988730;28;20455;-83
2023/01/04 14:00:58;;;;;;;68.13;65.60;;;12.70;99.90;;;;;;4981799;28;20461;-84